sensor_id;sensor_type;location;lat;lon;timestamp;pressure;altitude;pressure_sealevel;temperature;humidity
8641;BME280;4358;42.100;25.222;2023-05-02T11:26:19;100596.81;;;24.70;31.20
8641;BME280;4358;42.100;25.222;2023-05-02T11:28:47;100598.22;;;24.97;31.27
8641;BME280;4358;42.100;25.222;2023-05-02T11:34:21;100598.19;;;25.05;30.09
8641;BME280;4358;42.100;25.222;2023-05-02T11:36:48;100584.34;;;25.15;30.22
8641;BME280;4358;42.100;25.222;2023-05-02T11:39:18;100578.34;;;25.27;30.51
8641;BME280;4358;42.100;25.222;2023-05-02T11:41:47;100587.69;;;25.48;29.36
8641;BME280;4358;42.100;25.222;2023-05-02T11:44:15;100589.91;;;25.44;29.67
8641;BME280;4358;42.100;25.222;2023-05-02T11:46:43;100578.56;;;25.41;29.67
8641;BME280;4358;42.100;25.222;2023-05-02T11:49:10;100569.31;;;25.50;29.90
8641;BME280;4358;42.100;25.222;2023-05-02T11:51:38;100562.72;;;25.44;30.46
8641;BME280;4358;42.100;25.222;2023-05-02T11:54:06;100559.66;;;25.24;29.87
8641;BME280;4358;42.100;25.222;2023-05-02T11:56:33;100561.44;;;25.55;30.06
8641;BME280;4358;42.100;25.222;2023-05-02T11:59:02;100543.13;;;25.11;29.87
8641;BME280;4358;42.100;25.222;2023-05-02T12:01:29;100556.28;;;24.61;30.17
8641;BME280;4358;42.100;25.222;2023-05-02T12:04:06;100543.91;;;24.27;30.41
8641;BME280;4358;42.100;25.222;2023-05-02T12:06:34;100538.28;;;24.37;31.35
8641;BME280;4358;42.100;25.222;2023-05-02T12:09:08;100539.22;;;24.52;31.20
8641;BME280;4358;42.100;25.222;2023-05-02T12:11:36;100539.28;;;24.75;30.38
8641;BME280;4358;42.100;25.222;2023-05-02T12:14:04;100535.75;;;24.97;30.55
8641;BME280;4358;42.100;25.222;2023-05-02T12:16:32;100518.41;;;25.06;29.59
8641;BME280;4358;42.100;25.222;2023-05-02T12:18:59;100532.72;;;24.92;29.95
8641;BME280;4358;42.100;25.222;2023-05-02T12:21:27;100532.38;;;24.95;29.75
8641;BME280;4358;42.100;25.222;2023-05-02T12:23:55;100542.94;;;24.82;30.07
8641;BME280;4358;42.100;25.222;2023-05-02T12:26:23;100530.56;;;24.87;29.44
8641;BME280;4358;42.100;25.222;2023-05-02T12:28:54;100527.78;;;25.18;30.22
8641;BME280;4358;42.100;25.222;2023-05-02T12:31:23;100517.16;;;25.31;29.43
8641;BME280;4358;42.100;25.222;2023-05-02T12:33:51;100520.06;;;25.30;28.90
8641;BME280;4358;42.100;25.222;2023-05-02T12:36:22;100510.03;;;25.08;29.51
8641;BME280;4358;42.100;25.222;2023-05-02T12:38:49;100513.72;;;25.15;29.74
8641;BME280;4358;42.100;25.222;2023-05-02T12:41:17;100511.19;;;25.51;29.99
8641;BME280;4358;42.100;25.222;2023-05-02T12:43:45;100502.59;;;25.85;29.38
8641;BME280;4358;42.100;25.222;2023-05-02T12:46:12;100495.56;;;25.90;28.76
8641;BME280;4358;42.100;25.222;2023-05-02T12:48:41;100488.41;;;25.89;28.84
8641;BME280;4358;42.100;25.222;2023-05-02T12:51:20;100492.34;;;25.49;28.29
8641;BME280;4358;42.100;25.222;2023-05-02T12:53:48;100482.63;;;25.55;29.10
8641;BME280;4358;42.100;25.222;2023-05-02T12:56:15;100463.66;;;25.84;29.00
8641;BME280;4358;42.100;25.222;2023-05-02T12:58:43;100469.38;;;25.89;28.91
8641;BME280;4358;42.100;25.222;2023-05-02T13:01:11;100468.53;;;26.03;29.07
8641;BME280;4358;42.100;25.222;2023-05-02T13:03:40;100472.75;;;25.77;28.91
8641;BME280;4358;42.100;25.222;2023-05-02T13:06:07;100464.31;;;25.71;29.45
8641;BME280;4358;42.100;25.222;2023-05-02T13:08:34;100464.97;;;25.59;28.80
8641;BME280;4358;42.100;25.222;2023-05-02T13:11:02;100457.44;;;25.61;29.75
8641;BME280;4358;42.100;25.222;2023-05-02T13:13:29;100456.53;;;25.31;30.03
8641;BME280;4358;42.100;25.222;2023-05-02T13:15:57;100462.66;;;25.48;29.68
8641;BME280;4358;42.100;25.222;2023-05-02T13:18:23;100450.78;;;25.11;30.33
8641;BME280;4358;42.100;25.222;2023-05-02T13:20:53;100467.00;;;25.19;30.72
8641;BME280;4358;42.100;25.222;2023-05-02T13:23:20;100454.28;;;25.20;30.49
8641;BME280;4358;42.100;25.222;2023-05-02T13:25:47;100457.44;;;25.23;30.82
8641;BME280;4358;42.100;25.222;2023-05-02T13:28:14;100450.78;;;25.11;30.72
8641;BME280;4358;42.100;25.222;2023-05-02T13:30:41;100459.97;;;25.10;31.15
8641;BME280;4358;42.100;25.222;2023-05-02T13:33:08;100452.84;;;25.09;31.07
8641;BME280;4358;42.100;25.222;2023-05-02T13:35:35;100462.56;;;25.41;31.62
8641;BME280;4358;42.100;25.222;2023-05-02T13:38:03;100475.06;;;25.65;31.40
8641;BME280;4358;42.100;25.222;2023-05-02T13:40:33;100472.13;;;25.52;30.79
8641;BME280;4358;42.100;25.222;2023-05-02T13:43:00;100472.81;;;25.54;30.70
8641;BME280;4358;42.100;25.222;2023-05-02T13:45:27;100475.81;;;25.21;31.74
8641;BME280;4358;42.100;25.222;2023-05-02T13:47:54;100468.59;;;25.14;32.32
8641;BME280;4358;42.100;25.222;2023-05-02T13:50:20;100456.72;;;25.29;31.23
8641;BME280;4358;42.100;25.222;2023-05-02T13:52:47;100465.91;;;25.28;31.42
8641;BME280;4358;42.100;25.222;2023-05-02T13:55:15;100466.41;;;25.47;31.78
8641;BME280;4358;42.100;25.222;2023-05-02T13:57:42;100449.00;;;25.56;31.33
8641;BME280;4358;42.100;25.222;2023-05-02T14:00:10;100450.06;;;25.69;31.57
8641;BME280;4358;42.100;25.222;2023-05-02T14:02:37;100436.66;;;25.68;31.66
8641;BME280;4358;42.100;25.222;2023-05-02T14:05:05;100431.97;;;25.62;31.54
8641;BME280;4358;42.100;25.222;2023-05-02T14:07:32;100441.00;;;25.40;30.96
8641;BME280;4358;42.100;25.222;2023-05-02T14:09:59;100442.84;;;25.24;31.67
8641;BME280;4358;42.100;25.222;2023-05-02T14:12:28;100441.72;;;25.19;31.32
8641;BME280;4358;42.100;25.222;2023-05-02T14:14:56;100440.28;;;25.08;31.84
8641;BME280;4358;42.100;25.222;2023-05-02T14:17:22;100448.16;;;25.18;31.70
8641;BME280;4358;42.100;25.222;2023-05-02T14:19:51;100450.09;;;25.32;31.84
8641;BME280;4358;42.100;25.222;2023-05-02T14:22:18;100443.91;;;25.38;31.29
8641;BME280;4358;42.100;25.222;2023-05-02T14:24:44;100436.84;;;25.29;30.94
8641;BME280;4358;42.100;25.222;2023-05-02T14:27:11;100437.34;;;25.33;31.40
8641;BME280;4358;42.100;25.222;2023-05-02T14:29:44;100435.28;;;25.49;31.19
8641;BME280;4358;42.100;25.222;2023-05-02T14:32:10;100449.00;;;25.70;30.89
8641;BME280;4358;42.100;25.222;2023-05-02T14:34:37;100457.38;;;25.84;31.24
8641;BME280;4358;42.100;25.222;2023-05-02T14:37:04;100451.66;;;25.93;31.03
8641;BME280;4358;42.100;25.222;2023-05-02T14:39:31;100454.84;;;25.82;31.15
8641;BME280;4358;42.100;25.222;2023-05-02T14:41:58;100459.59;;;25.65;31.10
8641;BME280;4358;42.100;25.222;2023-05-02T14:44:27;100459.56;;;25.51;30.70
8641;BME280;4358;42.100;25.222;2023-05-02T14:46:55;100443.53;;;25.26;31.02
8641;BME280;4358;42.100;25.222;2023-05-02T14:49:22;100448.84;;;25.35;31.05
8641;BME280;4358;42.100;25.222;2023-05-02T14:51:50;100440.50;;;25.21;31.24
8641;BME280;4358;42.100;25.222;2023-05-02T14:54:16;100446.81;;;24.99;31.11
8641;BME280;4358;42.100;25.222;2023-05-02T14:56:44;100447.91;;;24.90;31.59
8641;BME280;4358;42.100;25.222;2023-05-02T14:59:11;100442.41;;;24.98;31.21
8641;BME280;4358;42.100;25.222;2023-05-02T15:01:38;100445.28;;;24.97;30.83
8641;BME280;4358;42.100;25.222;2023-05-02T15:04:06;100449.69;;;24.98;31.17
8641;BME280;4358;42.100;25.222;2023-05-02T15:06:33;100428.34;;;24.95;31.08
8641;BME280;4358;42.100;25.222;2023-05-02T15:09:03;100442.38;;;25.21;31.40
8641;BME280;4358;42.100;25.222;2023-05-02T15:11:30;100444.97;;;25.14;30.48
8641;BME280;4358;42.100;25.222;2023-05-02T15:13:57;100444.81;;;24.93;31.00
8641;BME280;4358;42.100;25.222;2023-05-02T15:16:24;100443.22;;;24.76;31.04
8641;BME280;4358;42.100;25.222;2023-05-02T15:18:51;100452.72;;;24.80;30.87
8641;BME280;4358;42.100;25.222;2023-05-02T15:21:19;100440.16;;;24.56;31.09
8641;BME280;4358;42.100;25.222;2023-05-02T15:23:46;100438.84;;;24.75;31.10
8641;BME280;4358;42.100;25.222;2023-05-02T15:26:13;100451.28;;;24.92;31.27
8641;BME280;4358;42.100;25.222;2023-05-02T15:28:40;100441.00;;;24.79;30.87
8641;BME280;4358;42.100;25.222;2023-05-02T15:31:06;100443.50;;;24.89;30.83
8641;BME280;4358;42.100;25.222;2023-05-02T15:33:33;100443.44;;;24.97;31.36
8641;BME280;4358;42.100;25.222;2023-05-02T15:36:00;100431.09;;;24.86;31.43
8641;BME280;4358;42.100;25.222;2023-05-02T15:38:28;100438.16;;;24.73;31.91
8641;BME280;4358;42.100;25.222;2023-05-02T15:40:56;100425.69;;;24.64;32.13
8641;BME280;4358;42.100;25.222;2023-05-02T15:43:24;100434.72;;;24.79;31.72
8641;BME280;4358;42.100;25.222;2023-05-02T15:45:51;100443.03;;;24.77;31.64
8641;BME280;4358;42.100;25.222;2023-05-02T15:48:19;100433.03;;;24.78;31.71
8641;BME280;4358;42.100;25.222;2023-05-02T15:50:46;100429.84;;;24.74;32.04
8641;BME280;4358;42.100;25.222;2023-05-02T15:53:14;100423.66;;;24.88;32.21
8641;BME280;4358;42.100;25.222;2023-05-02T15:55:43;100426.19;;;24.90;32.13
8641;BME280;4358;42.100;25.222;2023-05-02T15:58:10;100428.69;;;24.92;32.64
8641;BME280;4358;42.100;25.222;2023-05-02T16:00:37;100434.97;;;24.69;33.31
8641;BME280;4358;42.100;25.222;2023-05-02T16:03:04;100427.38;;;24.65;33.43
8641;BME280;4358;42.100;25.222;2023-05-02T16:05:31;100428.41;;;24.64;33.05
8641;BME280;4358;42.100;25.222;2023-05-02T16:07:58;100429.78;;;24.60;33.20
8641;BME280;4358;42.100;25.222;2023-05-02T16:10:25;100430.84;;;24.51;33.35
8641;BME280;4358;42.100;25.222;2023-05-02T16:12:53;100432.72;;;24.50;32.56
8641;BME280;4358;42.100;25.222;2023-05-02T16:15:20;100432.50;;;24.60;32.53
8641;BME280;4358;42.100;25.222;2023-05-02T16:17:47;100424.84;;;24.63;32.61
8641;BME280;4358;42.100;25.222;2023-05-02T16:20:14;100425.09;;;24.54;32.70
8641;BME280;4358;42.100;25.222;2023-05-02T16:22:42;100422.72;;;24.51;32.86
8641;BME280;4358;42.100;25.222;2023-05-02T16:25:10;100420.16;;;24.26;33.29
8641;BME280;4358;42.100;25.222;2023-05-02T16:27:36;100418.53;;;24.17;33.51
8641;BME280;4358;42.100;25.222;2023-05-02T16:30:06;100415.41;;;24.28;33.45
8641;BME280;4358;42.100;25.222;2023-05-02T16:32:33;100413.94;;;24.18;33.83
8641;BME280;4358;42.100;25.222;2023-05-02T16:35:01;100406.22;;;24.29;33.51
8641;BME280;4358;42.100;25.222;2023-05-02T16:37:29;100410.78;;;24.37;33.85
8641;BME280;4358;42.100;25.222;2023-05-02T16:39:57;100411.63;;;24.37;33.69
8641;BME280;4358;42.100;25.222;2023-05-02T16:42:24;100415.19;;;24.38;33.78
8641;BME280;4358;42.100;25.222;2023-05-02T16:44:51;100413.63;;;24.43;33.92
8641;BME280;4358;42.100;25.222;2023-05-02T16:47:20;100417.03;;;24.37;34.00
8641;BME280;4358;42.100;25.222;2023-05-02T16:49:51;100418.19;;;24.12;34.40
8641;BME280;4358;42.100;25.222;2023-05-02T16:52:19;100424.78;;;24.18;34.60
8641;BME280;4358;42.100;25.222;2023-05-02T16:54:45;100427.41;;;23.87;35.21
8641;BME280;4358;42.100;25.222;2023-05-02T16:57:13;100435.16;;;23.51;35.83
8641;BME280;4358;42.100;25.222;2023-05-02T16:59:44;100429.63;;;23.12;36.18
8641;BME280;4358;42.100;25.222;2023-05-02T17:02:11;100442.13;;;22.89;37.40
8641;BME280;4358;42.100;25.222;2023-05-02T17:04:39;100448.00;;;22.68;37.63
8641;BME280;4358;42.100;25.222;2023-05-02T17:07:06;100445.28;;;22.52;38.61
8641;BME280;4358;42.100;25.222;2023-05-02T17:09:33;100454.78;;;22.06;40.37
8641;BME280;4358;42.100;25.222;2023-05-02T17:12:01;100458.72;;;21.85;40.79
8641;BME280;4358;42.100;25.222;2023-05-02T17:14:28;100461.69;;;21.74;41.44
8641;BME280;4358;42.100;25.222;2023-05-02T17:16:55;100466.72;;;21.61;42.21
8641;BME280;4358;42.100;25.222;2023-05-02T17:19:22;100472.72;;;21.11;43.84
8641;BME280;4358;42.100;25.222;2023-05-02T17:21:53;100478.81;;;20.78;44.62
8641;BME280;4358;42.100;25.222;2023-05-02T17:24:21;100472.97;;;20.65;45.53
8641;BME280;4358;42.100;25.222;2023-05-02T17:26:48;100480.72;;;20.33;46.63
8641;BME280;4358;42.100;25.222;2023-05-02T17:29:15;100485.88;;;20.16;47.26
8641;BME280;4358;42.100;25.222;2023-05-02T17:31:41;100480.53;;;20.07;47.55
8641;BME280;4358;42.100;25.222;2023-05-02T17:34:08;100482.44;;;19.97;47.64
8641;BME280;4358;42.100;25.222;2023-05-02T17:36:38;100487.59;;;19.80;47.91
8641;BME280;4358;42.100;25.222;2023-05-02T17:39:07;100484.41;;;19.67;48.33
8641;BME280;4358;42.100;25.222;2023-05-02T17:41:35;100488.56;;;19.52;48.81
8641;BME280;4358;42.100;25.222;2023-05-02T17:44:02;100494.50;;;19.27;49.04
8641;BME280;4358;42.100;25.222;2023-05-02T17:46:29;100494.81;;;19.14;48.97
8641;BME280;4358;42.100;25.222;2023-05-02T17:48:56;100501.03;;;18.95;48.70
8641;BME280;4358;42.100;25.222;2023-05-02T17:51:23;100498.78;;;18.81;49.27
8641;BME280;4358;42.100;25.222;2023-05-02T17:53:50;100509.41;;;18.73;48.87
8641;BME280;4358;42.100;25.222;2023-05-02T17:56:18;100517.00;;;18.58;49.18
8641;BME280;4358;42.100;25.222;2023-05-02T17:58:45;100514.56;;;18.46;49.71
8641;BME280;4358;42.100;25.222;2023-05-02T18:01:12;100523.72;;;18.43;50.08
8641;BME280;4358;42.100;25.222;2023-05-02T18:03:39;100522.88;;;18.43;50.33
8641;BME280;4358;42.100;25.222;2023-05-02T18:06:06;100529.50;;;18.29;51.20
8641;BME280;4358;42.100;25.222;2023-05-02T18:08:33;100538.81;;;18.25;51.43
8641;BME280;4358;42.100;25.222;2023-05-02T18:11:00;100543.03;;;18.18;51.76
8641;BME280;4358;42.100;25.222;2023-05-02T18:13:28;100543.03;;;18.18;51.67
8641;BME280;4358;42.100;25.222;2023-05-02T18:16:00;100533.13;;;18.09;52.11
8641;BME280;4358;42.100;25.222;2023-05-02T18:18:27;100552.34;;;18.14;52.79
8641;BME280;4358;42.100;25.222;2023-05-02T18:20:54;100549.38;;;18.17;52.60
8641;BME280;4358;42.100;25.222;2023-05-02T18:23:22;100549.66;;;18.14;52.65
8641;BME280;4358;42.100;25.222;2023-05-02T18:25:49;100546.09;;;18.04;52.29
8641;BME280;4358;42.100;25.222;2023-05-02T18:28:16;100548.41;;;17.88;51.73
8641;BME280;4358;42.100;25.222;2023-05-02T18:30:44;100548.44;;;17.67;51.97
8641;BME280;4358;42.100;25.222;2023-05-02T18:33:11;100539.69;;;17.33;53.03
8641;BME280;4358;42.100;25.222;2023-05-02T18:35:37;100542.19;;;17.25;53.58
8641;BME280;4358;42.100;25.222;2023-05-02T18:38:10;100538.47;;;17.16;54.01
8641;BME280;4358;42.100;25.222;2023-05-02T18:40:37;100544.34;;;17.10;54.32
8641;BME280;4358;42.100;25.222;2023-05-02T18:43:04;100544.28;;;17.01;54.90
8641;BME280;4358;42.100;25.222;2023-05-02T18:45:31;100545.34;;;16.98;55.36
8641;BME280;4358;42.100;25.222;2023-05-02T18:47:59;100554.38;;;16.97;55.61
8641;BME280;4358;42.100;25.222;2023-05-02T18:50:26;100544.34;;;16.78;56.23
8641;BME280;4358;42.100;25.222;2023-05-02T18:52:52;100545.69;;;16.73;57.13
8641;BME280;4358;42.100;25.222;2023-05-02T18:55:19;100558.84;;;16.65;57.70
8641;BME280;4358;42.100;25.222;2023-05-02T18:57:47;100566.91;;;16.53;58.21
8641;BME280;4358;42.100;25.222;2023-05-02T19:00:14;100568.84;;;16.51;58.01
8641;BME280;4358;42.100;25.222;2023-05-02T19:02:42;100577.00;;;16.50;57.64
8641;BME280;4358;42.100;25.222;2023-05-02T19:05:10;100579.59;;;16.40;57.68
8641;BME280;4358;42.100;25.222;2023-05-02T19:07:37;100574.59;;;16.36;57.65
8641;BME280;4358;42.100;25.222;2023-05-02T19:10:04;100579.22;;;16.23;58.10
8641;BME280;4358;42.100;25.222;2023-05-02T19:12:31;100581.28;;;16.30;57.36
8641;BME280;4358;42.100;25.222;2023-05-02T19:14:58;100584.09;;;16.29;56.81
8641;BME280;4358;42.100;25.222;2023-05-02T19:17:25;100582.53;;;16.15;57.44
8641;BME280;4358;42.100;25.222;2023-05-02T19:19:52;100577.03;;;16.05;57.85
8641;BME280;4358;42.100;25.222;2023-05-02T19:22:20;100578.75;;;16.06;58.17
8641;BME280;4358;42.100;25.222;2023-05-02T19:24:47;100576.66;;;15.99;58.50
8641;BME280;4358;42.100;25.222;2023-05-02T19:27:15;100585.94;;;16.06;58.47
8641;BME280;4358;42.100;25.222;2023-05-02T19:29:42;100580.19;;;15.99;57.78
8641;BME280;4358;42.100;25.222;2023-05-02T19:32:08;100592.84;;;16.08;56.83
8641;BME280;4358;42.100;25.222;2023-05-02T19:34:35;100602.38;;;16.01;56.07
8641;BME280;4358;42.100;25.222;2023-05-02T19:37:02;100605.03;;;16.13;55.58
8641;BME280;4358;42.100;25.222;2023-05-02T19:39:30;100598.69;;;16.14;55.13
8641;BME280;4358;42.100;25.222;2023-05-02T19:41:57;100594.56;;;16.09;54.89
8641;BME280;4358;42.100;25.222;2023-05-02T19:44:24;100610.03;;;16.06;55.32
8641;BME280;4358;42.100;25.222;2023-05-02T19:46:53;100597.22;;;15.98;55.16
8641;BME280;4358;42.100;25.222;2023-05-02T19:49:20;100605.88;;;15.91;55.54
8641;BME280;4358;42.100;25.222;2023-05-02T19:51:47;100609.13;;;15.72;55.98
8641;BME280;4358;42.100;25.222;2023-05-02T19:54:13;100618.84;;;15.73;56.23
8641;BME280;4358;42.100;25.222;2023-05-02T19:56:42;100637.03;;;15.57;57.40
8641;BME280;4358;42.100;25.222;2023-05-02T19:59:08;100635.22;;;15.34;58.99
8641;BME280;4358;42.100;25.222;2023-05-02T20:01:35;100637.69;;;15.37;60.14
8641;BME280;4358;42.100;25.222;2023-05-02T20:04:02;100638.97;;;15.31;60.64
8641;BME280;4358;42.100;25.222;2023-05-02T20:06:29;100632.63;;;15.21;61.43
8641;BME280;4358;42.100;25.222;2023-05-02T20:08:56;100587.91;;;14.75;62.16
8641;BME280;4358;42.100;25.222;2023-05-02T20:11:23;100627.34;;;14.72;63.14
8641;BME280;4358;42.100;25.222;2023-05-02T20:13:52;100619.25;;;14.61;63.10
8641;BME280;4358;42.100;25.222;2023-05-02T20:16:19;100618.63;;;14.45;62.47
8641;BME280;4358;42.100;25.222;2023-05-02T20:18:46;100618.97;;;14.53;61.55
8641;BME280;4358;42.100;25.222;2023-05-02T20:21:13;100599.22;;;14.43;61.00
8641;BME280;4358;42.100;25.222;2023-05-02T20:23:40;100596.09;;;14.36;61.08
8641;BME280;4358;42.100;25.222;2023-05-02T20:26:08;100593.66;;;14.46;59.88
8641;BME280;4358;42.100;25.222;2023-05-02T20:28:35;100579.22;;;14.35;59.34
8641;BME280;4358;42.100;25.222;2023-05-02T20:31:03;100605.19;;;14.46;58.93
8641;BME280;4358;42.100;25.222;2023-05-02T20:33:30;100593.44;;;14.36;60.65
8641;BME280;4358;42.100;25.222;2023-05-02T20:35:57;100610.25;;;14.38;62.09
8641;BME280;4358;42.100;25.222;2023-05-02T20:38:24;100611.94;;;14.26;63.88
8641;BME280;4358;42.100;25.222;2023-05-02T20:40:51;100614.31;;;14.18;65.11
8641;BME280;4358;42.100;25.222;2023-05-02T20:43:18;100605.97;;;14.23;65.80
8641;BME280;4358;42.100;25.222;2023-05-02T20:45:47;100607.78;;;14.10;67.87
8641;BME280;4358;42.100;25.222;2023-05-02T20:48:15;100619.44;;;13.96;70.67
8641;BME280;4358;42.100;25.222;2023-05-02T20:50:50;100616.22;;;13.91;72.43
8641;BME280;4358;42.100;25.222;2023-05-02T20:53:18;100610.25;;;13.75;74.12
8641;BME280;4358;42.100;25.222;2023-05-02T20:55:45;100611.28;;;13.72;74.87
8641;BME280;4358;42.100;25.222;2023-05-02T20:58:11;100621.09;;;13.72;75.56
8641;BME280;4358;42.100;25.222;2023-05-02T21:00:38;100618.13;;;13.64;77.01
8641;BME280;4358;42.100;25.222;2023-05-02T21:03:05;100628.78;;;13.64;77.33
8641;BME280;4358;42.100;25.222;2023-05-02T21:05:33;100630.16;;;13.56;78.09
8641;BME280;4358;42.100;25.222;2023-05-02T21:08:00;100631.09;;;13.55;78.50
8641;BME280;4358;42.100;25.222;2023-05-02T21:10:28;100625.34;;;13.62;78.26
8641;BME280;4358;42.100;25.222;2023-05-02T21:12:55;100628.66;;;13.52;79.14
8641;BME280;4358;42.100;25.222;2023-05-02T21:15:22;100635.25;;;13.47;80.38
8641;BME280;4358;42.100;25.222;2023-05-02T21:17:49;100641.94;;;13.40;81.68
8641;BME280;4358;42.100;25.222;2023-05-02T21:20:16;100643.91;;;13.50;81.80
8641;BME280;4358;42.100;25.222;2023-05-02T21:22:45;100644.03;;;13.49;82.11
8641;BME280;4358;42.100;25.222;2023-05-02T21:25:11;100642.81;;;13.40;83.20
8641;BME280;4358;42.100;25.222;2023-05-02T21:27:38;100632.91;;;13.42;83.65
8641;BME280;4358;42.100;25.222;2023-05-02T21:30:06;100628.91;;;13.23;85.90
8641;BME280;4358;42.100;25.222;2023-05-02T21:32:33;100639.69;;;13.07;87.95
8641;BME280;4358;42.100;25.222;2023-05-02T21:35:00;100646.53;;;13.11;88.14
8641;BME280;4358;42.100;25.222;2023-05-02T21:37:27;100641.69;;;13.03;89.24
8641;BME280;4358;42.100;25.222;2023-05-02T21:39:57;100645.41;;;13.01;89.99
8641;BME280;4358;42.100;25.222;2023-05-02T21:42:24;100647.72;;;12.93;91.06
8641;BME280;4358;42.100;25.222;2023-05-02T21:44:50;100652.84;;;12.96;91.01
8641;BME280;4358;42.100;25.222;2023-05-02T21:47:17;100653.81;;;12.95;91.55
8641;BME280;4358;42.100;25.222;2023-05-02T21:49:45;100650.88;;;12.85;92.31
8641;BME280;4358;42.100;25.222;2023-05-02T21:52:12;100650.25;;;12.82;93.18
8641;BME280;4358;42.100;25.222;2023-05-02T21:54:39;100636.75;;;12.70;94.25
8641;BME280;4358;42.100;25.222;2023-05-02T21:57:08;100646.16;;;12.76;94.35
8641;BME280;4358;42.100;25.222;2023-05-02T21:59:35;100652.06;;;12.67;94.87
8641;BME280;4358;42.100;25.222;2023-05-02T22:02:02;100642.63;;;12.61;95.50
8641;BME280;4358;42.100;25.222;2023-05-02T22:04:28;100656.47;;;12.54;96.24
8641;BME280;4358;42.100;25.222;2023-05-02T22:06:55;100661.13;;;12.50;96.52
8641;BME280;4358;42.100;25.222;2023-05-02T22:09:23;100654.75;;;12.39;96.79
8641;BME280;4358;42.100;25.222;2023-05-02T22:11:51;100651.63;;;12.32;97.69
8641;BME280;4358;42.100;25.222;2023-05-02T22:14:19;100644.78;;;12.28;98.44
8641;BME280;4358;42.100;25.222;2023-05-02T22:16:51;100650.47;;;12.22;98.87
8641;BME280;4358;42.100;25.222;2023-05-02T22:19:19;100656.56;;;12.10;99.80
8641;BME280;4358;42.100;25.222;2023-05-02T22:21:46;100649.81;;;12.18;98.93
8641;BME280;4358;42.100;25.222;2023-05-02T22:24:12;100668.81;;;12.26;98.05
8641;BME280;4358;42.100;25.222;2023-05-02T22:26:41;100656.75;;;12.21;97.88
8641;BME280;4358;42.100;25.222;2023-05-02T22:29:07;100669.31;;;12.19;97.43
8641;BME280;4358;42.100;25.222;2023-05-02T22:31:36;100665.00;;;12.02;98.77
8641;BME280;4358;42.100;25.222;2023-05-02T22:34:04;100669.00;;;11.95;99.47
8641;BME280;4358;42.100;25.222;2023-05-02T22:36:30;100664.53;;;11.96;99.66
8641;BME280;4358;42.100;25.222;2023-05-02T22:38:57;100661.94;;;11.94;99.49
8641;BME280;4358;42.100;25.222;2023-05-02T22:41:25;100661.00;;;11.81;99.83
8641;BME280;4358;42.100;25.222;2023-05-02T22:43:52;100660.75;;;11.70;100.00
8641;BME280;4358;42.100;25.222;2023-05-02T22:46:19;100655.50;;;11.68;100.00
8641;BME280;4358;42.100;25.222;2023-05-02T22:48:47;100658.16;;;11.68;100.00
8641;BME280;4358;42.100;25.222;2023-05-02T22:51:14;100650.66;;;11.61;100.00
8641;BME280;4358;42.100;25.222;2023-05-02T22:53:41;100645.41;;;11.59;100.00
8641;BME280;4358;42.100;25.222;2023-05-02T22:56:08;100644.66;;;11.57;100.00
8641;BME280;4358;42.100;25.222;2023-05-02T22:58:35;100634.78;;;11.59;100.00
8641;BME280;4358;42.100;25.222;2023-05-02T23:01:01;100636.84;;;11.40;100.00
8641;BME280;4358;42.100;25.222;2023-05-02T23:03:28;100641.56;;;11.35;100.00
8641;BME280;4358;42.100;25.222;2023-05-02T23:05:56;100643.53;;;11.31;100.00
8641;BME280;4358;42.100;25.222;2023-05-02T23:08:23;100651.44;;;11.47;100.00
8641;BME280;4358;42.100;25.222;2023-05-02T23:10:50;100650.72;;;11.45;100.00
8641;BME280;4358;42.100;25.222;2023-05-02T23:13:17;100649.56;;;11.49;100.00
8641;BME280;4358;42.100;25.222;2023-05-02T23:15:44;100653.53;;;11.42;100.00
8641;BME280;4358;42.100;25.222;2023-05-02T23:18:11;100653.69;;;11.55;100.00
8641;BME280;4358;42.100;25.222;2023-05-02T23:20:38;100657.47;;;11.80;99.54
8641;BME280;4358;42.100;25.222;2023-05-02T23:23:06;100652.00;;;11.98;97.87
8641;BME280;4358;42.100;25.222;2023-05-02T23:25:34;100650.56;;;12.06;96.59
8641;BME280;4358;42.100;25.222;2023-05-02T23:28:02;100644.66;;;12.15;96.36
8641;BME280;4358;42.100;25.222;2023-05-02T23:30:29;100650.47;;;12.22;96.05
8641;BME280;4358;42.100;25.222;2023-05-02T23:32:56;100641.06;;;12.16;96.47
8641;BME280;4358;42.100;25.222;2023-05-02T23:35:23;100652.19;;;12.09;97.42
8641;BME280;4358;42.100;25.222;2023-05-02T23:37:50;100654.88;;;12.09;97.77
8641;BME280;4358;42.100;25.222;2023-05-02T23:40:19;100656.34;;;11.99;98.34
8641;BME280;4358;42.100;25.222;2023-05-02T23:42:46;100662.25;;;12.04;98.19
8641;BME280;4358;42.100;25.222;2023-05-02T23:45:12;100661.50;;;12.16;97.68
8641;BME280;4358;42.100;25.222;2023-05-02T23:47:39;100656.09;;;12.03;98.13
8641;BME280;4358;42.100;25.222;2023-05-02T23:50:07;100659.88;;;11.99;98.51
8641;BME280;4358;42.100;25.222;2023-05-02T23:52:34;100655.22;;;12.03;98.64
8641;BME280;4358;42.100;25.222;2023-05-02T23:55:01;100651.91;;;12.13;98.19
8641;BME280;4358;42.100;25.222;2023-05-02T23:57:29;100659.25;;;12.24;97.36
8641;BME280;4358;42.100;25.222;2023-05-02T23:59:56;100666.94;;;12.28;97.36
